Accueil
METAR-TAF:

METAR-TAF

Aéroports :

Aéroport de Barcelone-El Prat

Barcelone, Espagne

latitude: 41-17N, longitude: 002-04E, altitude: 4 m

Observation

Le bulletin a été fait il y a 17 minutes, à 02:30 UTC
Vent 6 kt de nord-ouest
Température 13°C
Humidité 72%
Pression 1026 hPa
Visibilité 10 km ou plus
Quelques nuages à une hauteur de 5500 ft

METAR: LEBL 080230Z 32006KT 9999 FEW055 13/08 Q1026 NOSIG

Heure: 04:47 (02:47 UTC)

Prévision

Le bulletin a été fait il y a 3 heures et 47 minutes, à 23:00 UTC
Prévision valable du 08 à 00 UTC au 08 à 24 UTC
Vent 3 kt de direction variable
Visibilité 10 km ou plus
Nuages épars à une hauteur de 5000 ft
Evoluant progressivement
du 08 à 08 UTC au 08 à 10 UTC
Vent 7 kt de sud
Evoluant progressivement
du 08 à 21 UTC au 08 à 23 UTC
Vent 4 kt de nord

TAF: LEBL 072300Z 0800/0824 VRB03KT 9999 SCT050 TX18/0812Z TN10/0806Z BECMG 0808/0810 19007KT BECMG 0821/0823 35004KT

Observations et prévisions météorologiques de plus de 4000 aéroports (messages METAR et TAF).

Les stations disponibles sont représentées par des disques jaunes et rouges sur la carte.

Passer la souris dessus pour voir le nom de la station.

Cliquer dessus pour voir les observations et prévisions météorologiques.

Pour changer de carte: cliquez sur les boutons verts avec une croix noire pour zoomer, sur le bouton vert avec un tiret pour effectuer un zoom arrière, ou sur les flèches vertes pour les cartes adjacentes.


METAR-TAF: